Time;durP1;ratioP1;P1;durP2;ratioP2;P2;SDS_P1;SDS_P2;PMS_P1;PMS_P2;Temp;Humidity;BMP_temperature;BMP_pressure;BME280_temperature;BME280_humidity;BME280_pressure;Samples;Min_cycle;Max_cycle;Signal;HPM_P1;HPM_P2
2023/04/07 00:01:51;;;;;;;30.83;27.53;;;4.70;66.90;;;;;;4996125;28;20181;-89
2023/04/07 00:04:16;;;;;;;29.23;25.63;;;4.70;66.70;;;;;;4996131;28;20197;-89
2023/04/07 00:06:42;;;;;;;32.17;26.23;;;4.80;66.50;;;;;;4995872;28;20218;-89
2023/04/07 00:09:09;;;;;;;29.33;26.37;;;4.80;66.60;;;;;;4996039;28;20206;-89
2023/04/07 00:11:35;;;;;;;28.80;25.90;;;4.80;66.60;;;;;;4997024;28;20199;-89
2023/04/07 00:14:00;;;;;;;26.80;24.10;;;4.80;66.60;;;;;;4996841;28;20638;-89
2023/04/07 00:16:26;;;;;;;28.30;25.50;;;4.80;66.10;;;;;;4995598;28;20203;-88
2023/04/07 00:18:51;;;;;;;28.07;25.27;;;4.90;66.00;;;;;;4996281;28;20219;-88
2023/04/07 00:21:17;;;;;;;28.77;25.73;;;4.90;65.90;;;;;;4995480;28;20237;-88
2023/04/07 00:23:42;;;;;;;29.83;25.80;;;4.90;65.70;;;;;;4995859;28;20270;-88
2023/04/07 00:26:08;;;;;;;28.80;25.87;;;5.00;65.30;;;;;;4996511;28;20647;-89
2023/04/07 00:28:34;;;;;;;27.87;25.00;;;5.00;65.40;;;;;;4995544;28;20714;-88
2023/04/07 00:30:59;;;;;;;27.87;24.37;;;5.00;65.60;;;;;;4996323;28;20171;-88
2023/04/07 00:33:25;;;;;;;27.93;25.17;;;5.00;65.60;;;;;;4996070;28;20317;-89
2023/04/07 00:35:51;;;;;;;27.90;25.00;;;5.00;65.50;;;;;;4996536;28;20696;-89
2023/04/07 00:38:16;;;;;;;30.83;24.43;;;5.00;65.40;;;;;;4996590;28;20174;-88
2023/04/07 00:40:42;;;;;;;25.80;23.23;;;5.00;65.60;;;;;;4995226;28;20236;-89
2023/04/07 00:43:07;;;;;;;28.57;25.73;;;5.00;65.60;;;;;;4996405;28;20679;-88
2023/04/07 00:45:33;;;;;;;26.50;24.00;;;5.00;65.80;;;;;;4995130;28;20195;-88
2023/04/07 00:47:59;;;;;;;26.43;23.83;;;4.90;65.90;;;;;;4995470;28;20181;-89
2023/04/07 00:50:24;;;;;;;25.77;23.30;;;4.90;66.10;;;;;;4996313;28;20647;-89
2023/04/07 00:52:50;;;;;;;27.83;23.87;;;4.90;66.00;;;;;;4996203;28;20177;-89
2023/04/07 00:55:16;;;;;;;27.03;23.33;;;4.90;65.40;;;;;;4996224;28;20227;-89
2023/04/07 00:57:41;;;;;;;26.50;23.73;;;5.00;65.30;;;;;;4996512;28;20204;-89
2023/04/07 01:00:08;;;;;;;26.77;24.17;;;5.00;65.10;;;;;;4996378;28;20173;-89
2023/04/07 01:03:08;;;;;;;26.33;23.77;;;5.00;65.20;;;;;;4996110;28;20170;-87
2023/04/07 01:05:53;;;;;;;27.90;24.87;;;5.00;65.50;;;;;;4996215;28;20614;-90
2023/04/07 01:08:33;;;;;;;26.33;23.63;;;5.00;65.40;;;;;;4995053;28;20192;-89
2023/04/07 01:11:16;;;;;;;25.37;23.00;;;4.90;65.30;;;;;;4994857;28;20718;-90
2023/04/07 01:13:47;;;;;;;26.37;23.87;;;4.90;65.40;;;;;;4996867;28;20168;-88
2023/04/07 01:16:18;;;;;;;26.17;23.77;;;4.90;65.60;;;;;;4996254;28;20308;-89
2023/04/07 01:18:49;;;;;;;25.67;23.20;;;4.90;65.70;;;;;;4996610;28;20188;-89
2023/04/07 01:21:17;;;;;;;25.90;23.50;;;4.90;65.30;;;;;;4996528;28;20592;-90
2023/04/07 01:24:02;;;;;;;24.70;22.23;;;4.90;65.40;;;;;;4996459;28;20252;-89
2023/04/07 01:26:29;;;;;;;24.47;22.17;;;5.00;65.20;;;;;;4996113;28;20169;-89
2023/04/07 01:29:21;;;;;;;24.83;22.43;;;5.00;65.00;;;;;;4996708;28;20181;-89
2023/04/07 01:31:48;;;;;;;24.77;22.43;;;5.00;64.80;;;;;;4995626;28;20187;-89
2023/04/07 01:34:15;;;;;;;25.83;23.33;;;5.00;65.10;;;;;;4995984;28;20194;-90
2023/04/07 01:36:41;;;;;;;24.77;22.63;;;4.90;65.30;;;;;;4995857;28;20295;-89
2023/04/07 01:39:08;;;;;;;26.30;23.60;;;4.80;65.80;;;;;;4995742;28;20169;-89
2023/04/07 01:41:35;;;;;;;25.53;23.07;;;4.80;66.00;;;;;;4995611;28;20175;-89
2023/04/07 01:44:02;;;;;;;26.27;23.87;;;4.70;66.50;;;;;;4994664;28;20169;-90
2023/04/07 01:46:27;;;;;;;26.73;24.00;;;4.60;66.80;;;;;;4995625;28;20222;-89
2023/04/07 01:48:54;;;;;;;27.67;24.97;;;4.50;67.00;;;;;;4995661;28;20184;-89
2023/04/07 01:51:22;;;;;;;26.73;23.83;;;4.50;67.10;;;;;;4995474;28;20600;-90
2023/04/07 01:53:49;;;;;;;26.03;23.60;;;4.50;67.00;;;;;;4995528;28;20180;-89
2023/04/07 01:56:15;;;;;;;25.50;23.23;;;4.40;67.10;;;;;;4994066;28;20207;-90
2023/04/07 01:58:41;;;;;;;27.60;24.60;;;4.30;67.60;;;;;;4995274;28;20174;-89
2023/04/07 02:01:06;;;;;;;25.27;21.60;;;4.20;68.00;;;;;;4995337;28;20172;-89
2023/04/07 02:03:43;;;;;;;25.07;22.53;;;4.10;68.40;;;;;;4994205;28;20248;-89
2023/04/07 02:06:14;;;;;;;25.23;22.57;;;4.00;68.60;;;;;;4995316;28;20203;-90
2023/04/07 02:08:47;;;;;;;25.27;22.90;;;3.90;69.00;;;;;;4995451;28;20155;-89
2023/04/07 02:11:17;;;;;;;26.50;24.03;;;3.80;69.30;;;;;;4995608;28;20640;-90
2023/04/07 02:13:44;;;;;;;27.10;24.43;;;3.70;69.70;;;;;;4995028;28;20552;-89
2023/04/07 02:16:12;;;;;;;27.23;24.60;;;3.60;70.20;;;;;;4995117;28;20541;-90
2023/04/07 02:18:38;;;;;;;26.97;24.67;;;3.50;70.70;;;;;;4993929;28;20190;-89
2023/04/07 02:21:07;;;;;;;26.33;24.13;;;3.50;70.80;;;;;;4995415;28;20177;-90
2023/04/07 02:23:34;;;;;;;27.97;25.43;;;3.40;70.90;;;;;;4993766;28;20185;-90
2023/04/07 02:26:00;;;;;;;29.63;26.93;;;3.50;71.10;;;;;;4994096;28;20197;-90
2023/04/07 02:28:25;;;;;;;28.97;26.07;;;3.40;71.20;;;;;;4995043;28;20176;-89
2023/04/07 02:30:51;;;;;;;28.37;25.63;;;3.30;71.30;;;;;;4993388;28;20182;-89
2023/04/07 02:33:17;;;;;;;27.00;24.50;;;3.30;71.50;;;;;;4993532;28;20589;-89
2023/04/07 02:35:42;;;;;;;29.83;26.40;;;3.30;71.80;;;;;;4994585;28;20710;-90
2023/04/07 02:38:08;;;;;;;28.27;25.70;;;3.30;71.90;;;;;;4995338;28;20194;-90
2023/04/07 02:40:35;;;;;;;28.50;25.80;;;3.30;72.00;;;;;;4994425;28;20659;-90
2023/04/07 02:43:01;;;;;;;28.37;25.70;;;3.20;72.10;;;;;;4994765;28;20256;-89
2023/04/07 02:45:26;;;;;;;28.23;25.70;;;3.10;72.50;;;;;;4994480;28;20680;-90
2023/04/07 02:47:52;;;;;;;28.37;25.50;;;2.90;72.80;;;;;;4994821;28;20249;-89
2023/04/07 02:50:17;;;;;;;26.80;24.50;;;2.80;73.30;;;;;;4994410;28;20197;-90
2023/04/07 02:52:43;;;;;;;28.03;25.30;;;2.80;73.40;;;;;;4994459;28;20185;-89
2023/04/07 02:55:08;;;;;;;26.97;24.57;;;2.70;73.70;;;;;;4994187;28;20193;-90
2023/04/07 02:57:34;;;;;;;26.20;23.70;;;2.60;73.80;;;;;;4994480;28;20209;-90
2023/04/07 03:00:00;;;;;;;27.03;24.37;;;2.50;74.10;;;;;;4993233;28;20181;-89
2023/04/07 03:02:25;;;;;;;24.30;22.10;;;2.40;74.40;;;;;;4993361;28;20174;-89
2023/04/07 03:04:52;;;;;;;24.67;22.13;;;2.40;74.60;;;;;;4994365;28;20196;-89
2023/04/07 03:07:17;;;;;;;24.67;22.27;;;2.40;75.00;;;;;;4994400;28;20198;-90
2023/04/07 03:09:43;;;;;;;23.17;20.77;;;2.40;75.30;;;;;;4993660;28;20654;-90
2023/04/07 03:12:10;;;;;;;23.40;20.20;;;2.40;75.40;;;;;;4994691;28;20211;-89
2023/04/07 03:14:36;;;;;;;22.63;20.33;;;2.30;75.40;;;;;;4993271;28;20200;-89
2023/04/07 03:17:02;;;;;;;22.00;20.00;;;2.40;75.50;;;;;;4994453;28;20190;-90
2023/04/07 03:19:27;;;;;;;21.10;18.87;;;2.40;75.40;;;;;;4994543;28;20190;-89
2023/04/07 03:21:53;;;;;;;22.37;20.20;;;2.50;75.40;;;;;;4993348;28;20261;-89
2023/04/07 03:24:19;;;;;;;21.97;19.67;;;2.50;75.20;;;;;;4994519;28;20194;-89
2023/04/07 03:26:44;;;;;;;22.10;20.00;;;2.50;75.20;;;;;;4993153;28;20181;-90
2023/04/07 03:29:10;;;;;;;21.63;19.73;;;2.50;75.00;;;;;;4992827;28;20276;-89
2023/04/07 03:31:36;;;;;;;20.63;18.73;;;2.60;74.80;;;;;;4993256;28;20264;-90
2023/04/07 03:34:03;;;;;;;20.80;18.70;;;2.60;74.50;;;;;;4992782;28;20193;-90
2023/04/07 03:36:28;;;;;;;21.83;19.83;;;2.60;74.50;;;;;;4993909;28;20255;-90
2023/04/07 03:38:54;;;;;;;21.80;19.80;;;2.70;74.40;;;;;;4992885;28;20596;-89
2023/04/07 03:41:20;;;;;;;21.23;19.33;;;2.60;74.50;;;;;;4994033;28;20251;-89
2023/04/07 03:43:45;;;;;;;20.93;19.00;;;2.60;74.70;;;;;;4992601;28;20170;-89
2023/04/07 03:46:11;;;;;;;20.27;18.47;;;2.50;74.60;;;;;;4993751;28;20214;-89
2023/04/07 03:48:36;;;;;;;20.63;18.73;;;2.60;74.40;;;;;;4993906;28;20173;-90
2023/04/07 03:51:02;;;;;;;21.30;19.20;;;2.60;74.30;;;;;;4993724;28;20202;-89
2023/04/07 03:53:28;;;;;;;21.57;19.67;;;2.60;74.30;;;;;;4993794;28;20177;-89
2023/04/07 03:55:53;;;;;;;22.63;19.43;;;2.60;74.30;;;;;;4992566;28;20206;-89
2023/04/07 03:58:19;;;;;;;21.27;19.17;;;2.50;74.40;;;;;;4993714;28;20216;-89
2023/04/07 04:00:44;;;;;;;21.63;19.63;;;2.50;74.40;;;;;;4994056;28;20193;-89
2023/04/07 04:03:10;;;;;;;21.47;19.40;;;2.40;74.40;;;;;;4992704;28;20174;-89
2023/04/07 04:05:36;;;;;;;20.73;18.73;;;2.40;74.50;;;;;;4993725;28;20250;-89
2023/04/07 04:08:01;;;;;;;21.13;19.03;;;2.30;74.60;;;;;;4996445;28;20640;-89
2023/04/07 04:10:27;;;;;;;21.83;19.60;;;2.30;74.90;;;;;;4996022;28;20709;-89
2023/04/07 04:12:52;;;;;;;19.20;17.20;;;2.30;75.10;;;;;;4996081;28;20186;-89
2023/04/07 04:15:18;;;;;;;20.27;18.37;;;2.20;75.30;;;;;;4998209;28;20280;-89
2023/04/07 04:17:43;;;;;;;18.93;17.03;;;2.20;75.50;;;;;;4997522;28;20221;-90
2023/04/07 04:20:09;;;;;;;18.57;16.97;;;2.20;75.60;;;;;;4998060;28;20650;-89
2023/04/07 04:22:35;;;;;;;20.27;17.77;;;2.20;75.70;;;;;;4996093;28;20269;-89
2023/04/07 04:25:01;;;;;;;19.40;17.43;;;2.30;75.40;;;;;;4995968;28;20188;-90
2023/04/07 04:27:26;;;;;;;20.10;18.27;;;2.30;75.20;;;;;;4997357;28;20236;-89
2023/04/07 04:29:52;;;;;;;20.30;18.50;;;2.30;75.00;;;;;;4996249;28;20184;-89
2023/04/07 04:32:18;;;;;;;20.23;18.33;;;2.40;74.80;;;;;;4995963;28;20184;-89
2023/04/07 04:34:44;;;;;;;21.67;19.47;;;2.50;74.50;;;;;;4997050;28;20196;-89
2023/04/07 04:37:10;;;;;;;19.67;17.87;;;2.50;74.20;;;;;;4997274;28;20207;-89
2023/04/07 04:39:36;;;;;;;20.10;18.30;;;2.50;74.10;;;;;;4997067;28;20173;-89
2023/04/07 04:42:02;;;;;;;19.73;17.90;;;2.50;74.00;;;;;;4995829;28;20171;-89
2023/04/07 04:44:29;;;;;;;23.17;18.13;;;2.40;74.10;;;;;;4996673;28;20280;-89
2023/04/07 04:46:54;;;;;;;21.13;19.20;;;2.30;74.30;;;;;;4996689;28;20257;-89
2023/04/07 04:49:20;;;;;;;19.97;17.87;;;2.30;74.60;;;;;;4996761;28;20223;-90
2023/04/07 04:51:46;;;;;;;19.57;17.77;;;2.20;74.90;;;;;;4996519;28;20170;-89
2023/04/07 04:54:11;;;;;;;18.80;16.73;;;2.10;75.30;;;;;;4996507;28;20227;-90
2023/04/07 04:56:37;;;;;;;18.87;16.90;;;2.00;75.60;;;;;;4995505;28;20236;-89
2023/04/07 04:59:03;;;;;;;17.70;16.00;;;1.90;75.90;;;;;;4996476;28;20201;-89
2023/04/07 05:01:29;;;;;;;17.13;15.40;;;2.00;76.00;;;;;;4995150;28;20272;-89
2023/04/07 05:03:55;;;;;;;17.37;15.57;;;2.00;76.10;;;;;;4996550;28;20228;-89
2023/04/07 05:06:21;;;;;;;17.27;15.60;;;2.00;76.20;;;;;;4996858;28;20598;-89
2023/04/07 05:08:46;;;;;;;19.03;16.00;;;2.10;76.00;;;;;;4996358;28;20173;-89
2023/04/07 05:11:12;;;;;;;17.80;15.33;;;2.20;75.70;;;;;;4996605;28;20177;-89
2023/04/07 05:13:37;;;;;;;18.43;16.53;;;2.20;75.50;;;;;;4996256;28;20178;-89
2023/04/07 05:16:04;;;;;;;16.27;14.87;;;2.30;75.50;;;;;;4995921;28;20189;-89
2023/04/07 05:18:29;;;;;;;18.87;15.93;;;2.30;75.50;;;;;;4996462;28;20203;-89
2023/04/07 05:20:55;;;;;;;16.60;15.00;;;2.30;75.60;;;;;;4994921;28;20701;-89
2023/04/07 05:23:20;;;;;;;17.80;16.10;;;2.30;75.40;;;;;;4994758;28;20181;-89
2023/04/07 05:25:46;;;;;;;17.27;15.63;;;2.30;75.40;;;;;;4996305;28;20193;-89
2023/04/07 05:28:11;;;;;;;17.93;16.03;;;2.40;75.20;;;;;;4996437;28;20209;-89
2023/04/07 05:30:37;;;;;;;18.10;16.40;;;2.50;74.90;;;;;;4994669;28;20189;-90
2023/04/07 05:33:03;;;;;;;17.77;16.17;;;2.60;74.50;;;;;;4996033;28;20188;-89
2023/04/07 05:35:28;;;;;;;18.23;16.43;;;2.80;74.20;;;;;;4996053;28;20194;-90
2023/04/07 05:37:54;;;;;;;17.63;15.83;;;2.90;73.70;;;;;;4996155;28;20205;-89
2023/04/07 05:40:19;;;;;;;20.37;18.47;;;3.00;73.60;;;;;;4995864;28;20222;-89
2023/04/07 05:42:45;;;;;;;18.93;17.33;;;3.10;72.60;;;;;;4995880;28;20198;-89
2023/04/07 05:45:10;;;;;;;20.10;18.30;;;3.20;72.40;;;;;;4994709;28;20564;-90
2023/04/07 05:47:36;;;;;;;19.60;17.73;;;3.30;71.80;;;;;;4995787;28;20178;-89
2023/04/07 05:50:03;;;;;;;20.40;18.57;;;3.40;71.40;;;;;;4995269;28;20588;-89
2023/04/07 05:52:29;;;;;;;21.33;19.17;;;3.50;70.80;;;;;;4996216;28;20258;-89
2023/04/07 05:54:55;;;;;;;22.10;20.03;;;3.60;70.70;;;;;;4994719;28;20209;-89
2023/04/07 05:57:21;;;;;;;21.33;19.70;;;3.60;70.40;;;;;;4994663;28;20206;-89
2023/04/07 05:59:47;;;;;;;20.93;19.27;;;3.70;70.30;;;;;;4996061;28;20209;-88
2023/04/07 06:02:12;;;;;;;21.47;19.23;;;3.70;70.30;;;;;;4995667;28;20181;-88
2023/04/07 06:04:38;;;;;;;22.77;20.63;;;3.80;69.90;;;;;;4996166;28;20276;-88
2023/04/07 06:07:04;;;;;;;20.73;18.93;;;3.90;69.60;;;;;;4994162;28;20221;-88
2023/04/07 06:09:30;;;;;;;20.70;19.00;;;4.00;69.60;;;;;;4995827;28;20205;-88
2023/04/07 06:11:55;;;;;;;20.37;18.80;;;4.10;69.30;;;;;;4994254;28;20612;-88
2023/04/07 06:14:21;;;;;;;22.23;20.43;;;4.20;68.30;;;;;;4998686;28;20202;-88
2023/04/07 06:16:46;;;;;;;20.37;18.77;;;4.30;68.40;;;;;;4999373;28;20202;-89
2023/04/07 06:19:12;;;;;;;21.57;19.83;;;4.30;68.70;;;;;;5013545;28;20255;-89
2023/04/07 06:21:38;;;;;;;22.40;20.50;;;4.40;67.90;;;;;;4999164;28;20179;-90
2023/04/07 06:24:05;;;;;;;20.47;18.87;;;4.50;67.70;;;;;;4995933;28;20537;-89
2023/04/07 06:26:31;;;;;;;20.80;19.00;;;4.60;67.40;;;;;;4997708;28;20179;-90
2023/04/07 06:28:57;;;;;;;20.30;18.63;;;4.70;66.70;;;;;;4996237;28;20177;-89
2023/04/07 06:31:23;;;;;;;20.63;18.63;;;4.80;66.80;;;;;;4998360;28;20184;-90
2023/04/07 06:33:49;;;;;;;21.87;20.17;;;4.90;65.40;;;;;;4996077;28;20193;-90
2023/04/07 06:36:14;;;;;;;22.33;20.47;;;5.10;66.10;;;;;;4995862;28;20566;-90
2023/04/07 06:38:40;;;;;;;21.87;19.87;;;5.20;65.60;;;;;;4996469;28;20179;-90
2023/04/07 06:41:07;;;;;;;20.83;19.23;;;5.20;64.60;;;;;;4998493;28;20252;-89
2023/04/07 06:43:32;;;;;;;21.27;19.57;;;5.30;65.00;;;;;;5008342;28;20174;-90
2023/04/07 06:45:58;;;;;;;22.03;20.10;;;5.50;64.70;;;;;;5008855;28;20284;-90
2023/04/07 06:48:24;;;;;;;20.33;18.57;;;5.50;63.80;;;;;;5008726;28;20204;-91
2023/04/07 06:50:49;;;;;;;21.97;19.90;;;5.60;63.40;;;;;;4997035;28;20185;-90
2023/04/07 06:53:15;;;;;;;21.80;19.87;;;5.60;64.10;;;;;;5002394;28;20183;-90
2023/04/07 06:55:40;;;;;;;21.30;19.53;;;5.70;63.50;;;;;;4999947;28;20205;-91
2023/04/07 06:58:06;;;;;;;20.77;18.97;;;5.80;63.30;;;;;;4998133;28;20284;-90
2023/04/07 07:00:32;;;;;;;20.70;18.93;;;5.80;62.50;;;;;;5000695;28;20187;-90
2023/04/07 07:02:57;;;;;;;21.40;19.70;;;6.00;62.30;;;;;;4999442;28;20229;-91
2023/04/07 07:05:23;;;;;;;20.83;19.13;;;6.00;62.40;;;;;;5001878;28;20197;-91
2023/04/07 07:07:50;;;;;;;20.20;18.43;;;6.10;61.70;;;;;;5004840;28;20215;-90
2023/04/07 07:10:16;;;;;;;20.03;18.43;;;6.20;60.80;;;;;;5004313;28;20181;-91
2023/04/07 07:12:41;;;;;;;20.70;18.53;;;6.30;61.70;;;;;;5004630;28;20181;-91
2023/04/07 07:15:07;;;;;;;22.60;20.50;;;6.40;60.20;;;;;;5006904;28;20205;-91
2023/04/07 07:17:34;;;;;;;21.50;19.87;;;6.50;60.60;;;;;;5007943;28;20217;-91
2023/04/07 07:19:59;;;;;;;21.73;19.60;;;6.50;59.70;;;;;;5010963;28;20208;-91
2023/04/07 07:22:25;;;;;;;21.33;19.43;;;6.60;59.40;;;;;;5005440;28;20201;-90
2023/04/07 07:24:51;;;;;;;24.80;22.80;;;6.70;59.50;;;;;;5001610;28;20220;-91
2023/04/07 07:27:16;;;;;;;25.03;22.97;;;6.90;61.00;;;;;;5003023;28;20186;-91
2023/04/07 07:29:42;;;;;;;25.00;23.00;;;7.00;59.80;;;;;;5006376;28;20182;-91
2023/04/07 07:32:07;;;;;;;25.00;22.80;;;7.00;58.40;;;;;;5001094;28;20185;-91
2023/04/07 07:34:33;;;;;;;24.03;22.07;;;7.10;60.10;;;;;;5007274;28;20236;-90
2023/04/07 07:36:58;;;;;;;23.53;21.63;;;7.10;58.00;;;;;;5005993;28;20206;-91
2023/04/07 07:39:25;;;;;;;24.30;22.43;;;7.20;57.80;;;;;;5005302;28;20197;-91
2023/04/07 07:41:50;;;;;;;25.47;23.37;;;7.30;57.60;;;;;;5002720;28;20177;-91
2023/04/07 07:44:18;;;;;;;23.70;21.70;;;7.40;58.60;;;;;;5006877;28;20189;-91
2023/04/07 07:46:44;;;;;;;23.03;21.23;;;7.50;56.30;;;;;;5007143;28;20178;-90
2023/04/07 07:49:10;;;;;;;23.30;21.53;;;7.60;56.00;;;;;;5010988;28;20192;-90
2023/04/07 07:51:35;;;;;;;25.30;23.10;;;7.50;56.00;;;;;;5012877;28;20281;-91
2023/04/07 07:54:01;;;;;;;23.73;21.87;;;7.70;56.10;;;;;;5014328;28;20184;-90
2023/04/07 07:56:27;;;;;;;23.53;21.73;;;7.80;55.40;;;;;;5011054;28;20216;-90
2023/04/07 07:58:52;;;;;;;24.27;22.20;;;7.90;55.00;;;;;;5010516;28;20202;-90
2023/04/07 08:01:18;;;;;;;23.63;21.73;;;7.90;54.20;;;;;;5009555;28;20174;-90
2023/04/07 08:03:44;;;;;;;26.03;23.03;;;8.00;55.60;;;;;;5008589;28;20170;-90
2023/04/07 08:06:10;;;;;;;23.03;21.03;;;8.20;55.80;;;;;;5010335;28;20189;-91
2023/04/07 08:08:36;;;;;;;23.47;21.67;;;8.20;53.60;;;;;;5007396;28;20178;-91
2023/04/07 08:11:02;;;;;;;23.73;21.87;;;8.30;52.90;;;;;;5009333;28;20170;-91
2023/04/07 08:13:27;;;;;;;24.07;22.00;;;8.30;52.10;;;;;;5009514;28;20178;-90
2023/04/07 08:15:53;;;;;;;23.93;21.83;;;8.40;52.50;;;;;;5013056;28;20237;-90
2023/04/07 08:18:18;;;;;;;24.40;22.47;;;8.60;53.20;;;;;;5008268;28;20308;-90
2023/04/07 08:20:45;;;;;;;24.43;22.10;;;8.80;53.40;;;;;;5002024;28;20178;-90
2023/04/07 08:23:11;;;;;;;24.47;22.17;;;8.90;52.30;;;;;;5015594;28;20170;-90
2023/04/07 08:25:38;;;;;;;22.43;20.63;;;9.10;53.60;;;;;;5001720;28;20234;-90
2023/04/07 08:28:05;;;;;;;20.87;19.13;;;9.00;51.10;;;;;;4997440;28;20217;-90
2023/04/07 08:30:30;;;;;;;21.20;19.50;;;9.10;51.80;;;;;;4997475;28;20170;-90
2023/04/07 08:32:56;;;;;;;22.77;20.97;;;9.20;51.10;;;;;;5012993;28;20169;-91
2023/04/07 08:35:22;;;;;;;20.67;19.07;;;9.40;52.00;;;;;;5000992;28;20250;-90
2023/04/07 08:37:49;;;;;;;23.00;21.20;;;9.50;49.60;;;;;;5015553;28;20233;-91
2023/04/07 08:40:15;;;;;;;21.97;20.10;;;9.50;48.70;;;;;;5016014;28;20568;-91
2023/04/07 08:42:43;;;;;;;23.27;21.23;;;9.70;50.00;;;;;;5014434;28;20174;-91
2023/04/07 08:45:09;;;;;;;22.07;20.20;;;9.70;48.20;;;;;;5010779;28;20190;-90
2023/04/07 08:47:35;;;;;;;21.93;20.33;;;9.80;50.30;;;;;;5013087;28;20255;-91
2023/04/07 08:50:06;;;;;;;22.73;20.93;;;9.90;48.10;;;;;;5011485;28;20182;-91
2023/04/07 08:52:43;;;;;;;21.90;20.10;;;10.00;47.80;;;;;;5008898;28;20172;-91
2023/04/07 08:55:09;;;;;;;23.10;21.27;;;10.10;46.70;;;;;;5013007;28;20209;-91
2023/04/07 08:57:35;;;;;;;23.70;21.63;;;10.00;48.30;;;;;;5010185;28;20210;-91
2023/04/07 09:00:04;;;;;;;22.70;20.90;;;10.20;47.80;;;;;;5009854;28;20232;-90
2023/04/07 09:02:32;;;;;;;23.60;21.73;;;10.10;47.20;;;;;;5012804;28;20182;-91
2023/04/07 09:04:58;;;;;;;23.20;21.30;;;10.20;46.40;;;;;;5014222;28;20178;-91
2023/04/07 09:07:24;;;;;;;19.93;18.53;;;10.20;48.20;;;;;;5015083;28;20225;-91
2023/04/07 09:09:49;;;;;;;20.67;19.07;;;10.20;46.20;;;;;;5014224;28;20174;-91
2023/04/07 09:12:15;;;;;;;21.13;19.57;;;10.30;46.80;;;;;;5015766;28;20170;-91
2023/04/07 09:14:41;;;;;;;20.53;18.87;;;10.10;45.70;;;;;;5014918;28;20261;-90
2023/04/07 09:17:06;;;;;;;21.30;19.60;;;10.30;46.80;;;;;;5013609;28;20221;-91
2023/04/07 09:19:32;;;;;;;21.50;19.90;;;10.30;46.80;;;;;;5014752;28;20216;-91
2023/04/07 09:21:58;;;;;;;20.33;18.83;;;10.50;48.50;;;;;;5014648;28;20206;-90
2023/04/07 09:24:28;;;;;;;21.07;19.33;;;10.40;47.10;;;;;;5014633;28;20208;-90
2023/04/07 09:27:14;;;;;;;20.23;18.77;;;10.30;47.50;;;;;;5015336;28;20166;-90
2023/04/07 09:29:42;;;;;;;20.70;19.07;;;10.20;48.20;;;;;;5015582;28;20170;-90
2023/04/07 09:32:07;;;;;;;22.13;20.53;;;10.20;47.50;;;;;;5015607;28;20170;-90
2023/04/07 09:34:40;;;;;;;21.67;19.87;;;10.10;47.40;;;;;;5016227;28;20208;-90
2023/04/07 09:37:08;;;;;;;21.30;19.47;;;10.20;47.90;;;;;;5016495;28;20198;-90
2023/04/07 09:39:49;;;;;;;21.63;20.10;;;10.20;45.50;;;;;;5013110;28;20189;-90
2023/04/07 09:42:15;;;;;;;21.90;20.10;;;10.40;47.70;;;;;;5012409;28;20172;-90
2023/04/07 09:44:41;;;;;;;21.23;19.53;;;10.50;46.60;;;;;;5012021;28;20205;-90
2023/04/07 09:47:51;;;;;;;22.90;21.17;;;10.60;47.70;;;;;;5010339;28;20204;-90
2023/04/07 09:50:34;;;;;;;22.87;21.07;;;10.70;44.60;;;;;;5011907;28;20190;-90
2023/04/07 09:53:00;;;;;;;22.30;20.53;;;10.70;44.20;;;;;;5012211;28;20205;-90
2023/04/07 09:55:27;;;;;;;22.70;21.00;;;10.80;45.30;;;;;;5015381;28;20241;-90
2023/04/07 09:57:54;;;;;;;22.33;20.27;;;10.80;44.80;;;;;;5016497;28;20198;-89
2023/04/07 10:00:20;;;;;;;22.93;21.13;;;11.10;46.50;;;;;;5014336;28;20177;-89
2023/04/07 10:02:46;;;;;;;23.80;22.10;;;11.20;45.90;;;;;;5012882;28;20189;-91
2023/04/07 10:05:12;;;;;;;23.27;21.30;;;11.50;45.10;;;;;;5014179;28;20240;-90
2023/04/07 10:07:53;;;;;;;22.67;20.67;;;11.70;44.70;;;;;;5011819;28;20186;-91
2023/04/07 10:10:19;;;;;;;21.03;19.40;;;11.60;43.60;;;;;;5009614;28;20257;-89
2023/04/07 10:12:47;;;;;;;23.47;21.57;;;11.50;43.90;;;;;;5015275;28;20166;-91
2023/04/07 10:15:16;;;;;;;22.43;20.03;;;11.50;45.30;;;;;;5010649;28;20210;-90
2023/04/07 10:17:48;;;;;;;21.80;20.10;;;11.50;44.10;;;;;;5004535;28;20205;-91
2023/04/07 10:20:17;;;;;;;21.97;20.37;;;11.30;41.90;;;;;;5003335;28;20204;-90
2023/04/07 10:22:44;;;;;;;19.07;17.57;;;11.10;42.70;;;;;;5006098;28;20282;-90
2023/04/07 10:25:12;;;;;;;19.97;18.30;;;11.10;45.70;;;;;;5006922;28;20190;-90
2023/04/07 10:27:50;;;;;;;19.27;17.73;;;11.50;43.60;;;;;;5015487;28;20173;-91
2023/04/07 10:30:30;;;;;;;19.30;17.87;;;11.50;42.90;;;;;;5017865;28;20176;-89
2023/04/07 10:32:56;;;;;;;18.80;17.37;;;11.50;42.50;;;;;;5016595;28;20159;-92
2023/04/07 10:35:22;;;;;;;19.27;17.57;;;11.50;42.90;;;;;;5017298;28;20205;-91
2023/04/07 10:38:21;;;;;;;18.63;17.23;;;11.60;43.50;;;;;;5016896;28;20640;-91
2023/04/07 10:40:47;;;;;;;19.13;17.43;;;11.50;42.10;;;;;;4966140;28;20674;-91
2023/04/07 10:43:43;;;;;;;17.23;16.00;;;11.70;42.70;;;;;;4999390;28;20367;-90
2023/04/07 10:46:09;;;;;;;17.63;16.03;;;11.80;42.50;;;;;;4998294;28;20202;-91
2023/04/07 10:48:35;;;;;;;18.00;16.70;;;11.70;42.30;;;;;;5001276;28;20652;-91
2023/04/07 10:51:03;;;;;;;18.47;16.97;;;11.60;41.10;;;;;;4997528;28;20655;-88
2023/04/07 10:53:30;;;;;;;16.20;14.97;;;11.50;42.30;;;;;;4994238;28;20196;-89
2023/04/07 10:55:56;;;;;;;18.37;16.63;;;11.50;40.90;;;;;;5002335;28;20531;-90
2023/04/07 10:58:31;;;;;;;16.53;15.43;;;11.70;42.80;;;;;;5003551;28;20241;-90
2023/04/07 11:01:00;;;;;;;18.20;16.70;;;11.50;40.80;;;;;;4997654;28;20216;-90
2023/04/07 11:03:27;;;;;;;16.63;15.43;;;11.60;41.60;;;;;;5010909;28;20175;-90
2023/04/07 11:06:07;;;;;;;15.47;14.37;;;11.40;40.10;;;;;;5007902;28;20265;-89
2023/04/07 11:08:44;;;;;;;18.27;16.67;;;11.30;40.00;;;;;;4998714;28;20181;-90
2023/04/07 11:11:11;;;;;;;16.13;14.93;;;11.60;42.10;;;;;;4998152;28;20185;-89
2023/04/07 11:13:46;;;;;;;17.10;15.87;;;11.40;40.90;;;;;;4997043;28;20190;-90
2023/04/07 11:16:16;;;;;;;17.93;16.63;;;11.20;43.00;;;;;;4995033;28;20749;-90
2023/04/07 11:18:56;;;;;;;17.93;16.50;;;11.10;43.20;;;;;;4996655;28;20200;-89
2023/04/07 11:21:22;;;;;;;17.97;16.60;;;11.00;42.30;;;;;;5004109;28;20239;-89
2023/04/07 11:23:50;;;;;;;18.43;17.10;;;11.10;41.80;;;;;;5012471;28;20178;-89
2023/04/07 11:26:16;;;;;;;18.63;17.10;;;11.10;42.10;;;;;;5008397;28;20177;-90
2023/04/07 11:28:46;;;;;;;17.53;16.13;;;11.30;41.70;;;;;;5003202;28;20178;-89
2023/04/07 11:31:30;;;;;;;19.17;17.67;;;11.50;42.80;;;;;;5006511;28;20178;-90
2023/04/07 11:34:00;;;;;;;18.87;17.37;;;11.60;44.50;;;;;;5011989;28;20197;-89
2023/04/07 11:36:28;;;;;;;18.60;17.20;;;11.80;42.90;;;;;;5012338;28;20169;-90
2023/04/07 11:38:56;;;;;;;19.30;17.90;;;11.80;43.30;;;;;;5013693;28;20198;-90
2023/04/07 11:41:22;;;;;;;19.23;17.73;;;11.80;41.00;;;;;;5012639;28;20182;-90
2023/04/07 11:43:47;;;;;;;20.30;18.40;;;11.60;41.30;;;;;;5015956;28;20190;-90
2023/04/07 11:46:15;;;;;;;19.87;18.33;;;11.90;44.50;;;;;;5018241;28;20189;-88
2023/04/07 11:48:43;;;;;;;19.60;17.63;;;11.90;43.10;;;;;;5017345;28;20201;-89
2023/04/07 11:51:22;;;;;;;19.67;17.97;;;12.30;43.60;;;;;;5016866;28;20190;-90
2023/04/07 11:53:54;;;;;;;19.73;18.03;;;12.20;43.80;;;;;;5011623;28;20177;-90
2023/04/07 11:56:21;;;;;;;20.37;17.43;;;12.20;45.00;;;;;;5007966;28;20159;-91
2023/04/07 11:58:54;;;;;;;19.17;17.47;;;12.00;42.80;;;;;;5007872;28;20167;-91
2023/04/07 12:01:23;;;;;;;19.20;17.70;;;11.70;41.20;;;;;;5009609;28;20158;-91
2023/04/07 12:04:01;;;;;;;20.23;18.20;;;11.80;43.70;;;;;;5015711;28;20182;-91
2023/04/07 12:06:37;;;;;;;18.17;16.67;;;12.00;47.90;;;;;;5010370;28;20636;-91
2023/04/07 12:09:04;;;;;;;20.40;18.90;;;12.00;45.30;;;;;;5016621;28;20158;-90
2023/04/07 12:11:30;;;;;;;19.13;17.60;;;11.90;45.60;;;;;;5012007;28;20201;-91
2023/04/07 12:13:56;;;;;;;17.67;16.37;;;11.80;45.70;;;;;;5010789;28;20190;-91
2023/04/07 12:16:22;;;;;;;18.23;16.63;;;11.80;45.70;;;;;;5007126;28;20190;-90
2023/04/07 12:18:50;;;;;;;20.00;18.30;;;11.80;45.40;;;;;;5007011;28;20258;-90
2023/04/07 12:21:16;;;;;;;19.00;17.40;;;11.70;47.40;;;;;;5004898;28;20201;-91
2023/04/07 12:23:41;;;;;;;18.20;16.70;;;11.60;47.60;;;;;;5002882;28;20724;-90
2023/04/07 12:26:07;;;;;;;17.97;16.60;;;11.50;46.40;;;;;;5008202;28;20205;-90
2023/04/07 12:28:33;;;;;;;19.13;17.63;;;11.50;49.00;;;;;;5012186;28;20190;-90
2023/04/07 12:30:59;;;;;;;15.77;14.53;;;11.50;47.30;;;;;;5009232;28;20190;-90
2023/04/07 12:33:24;;;;;;;17.53;16.07;;;11.70;46.80;;;;;;5009923;28;20273;-91
2023/04/07 12:35:50;;;;;;;18.77;17.17;;;11.70;46.80;;;;;;5007696;28;20194;-90